• Join FlightAware (Why Join?)
  • Login
  • US Flag 
09:50AM EDT


 

Airport Tracker/Info


-or-


 

Live Flight TrackerFlight Track Log ✈ EJA396 ✈ 18-Dec-2013 ✈ KMKE - KDNV

Flight Track Log - Related Links

Times and Time Zones

All times are in EST time to prevent confusion due to time zone crossing. See the EJA396 flight status page for this flight to view local times or setup timezone preferences in your user account.

Time Position Orientation Groundspeed Altitude Reporting Facility
EST Latitude Longitude Course Direction KTS MPH feet Rate Location/Type
02:05PM 42.9500 -87.9000 144° Southeast 136 157 1,800  Level KMKE
02:06PM 42.9000 -87.8500 144° Southeast 242 278 5,500 3,480 Climbing KMKE
02:07PM 42.8242 -87.7428 134° Southeast 316 364 10,000 1,740 Climbing Chicago Center
02:08PM 42.7428 -87.7247 171° South 314 361 9,900 1,620 Descending Chicago Center
02:09PM 42.6389 -87.6972 169° South 316 364 13,400 2,520 Climbing Chicago Center
02:10PM 42.5400 -87.6872 176° South 345 397 15,200 1,680 Climbing Chicago Center
02:11PM 42.4358 -87.7033 187° South 375 432 16,900 840 Climbing Chicago Center
02:12PM 42.3286 -87.7225 188° South 388 447 17,000  Climbing Chicago Center
02:14PM 42.2183 -87.7394 186° South 394 453 17,000  Level Chicago Center
02:15PM 42.1083 -87.7575 187° South 398 458 17,000  Level Chicago Center
02:16PM 41.9978 -87.7772 188° South 401 461 17,000  Level Chicago Center
02:17PM 41.8636 -87.7803 181° South 404 465 17,000  Level Chicago Center
02:18PM 41.7492 -87.7661 175° South 412 474 17,000 -240 Level Chicago Center
02:19PM 41.6336 -87.7536 175° South 415 478 16,600 -540 Descending Chicago Center
02:20PM 41.5225 -87.7408 175° South 402 463 16,000 -300 Descending Chicago Center
02:21PM 41.4125 -87.7286 175° South 394 453 16,000  Level Chicago Center
02:22PM 41.3014 -87.7158 175° South 395 455 16,000 -300 Level Chicago Center
02:23PM 41.1906 -87.7033 175° South 398 458 15,500 -1,140 Descending Chicago Center
02:24PM 41.0642 -87.6897 175° South 383 441 13,700 -1,500 Descending Chicago Center
02:25PM 40.9639 -87.6775 175° South 367 422 12,500 -1,320 Descending Chicago Center
02:26PM 40.8678 -87.6653 175° South 352 405 11,000 -1,440 Descending Chicago Center
02:27PM 40.7806 -87.6544 175° South 313 360 9,600 -1,260 Descending Chicago Center
02:28PM 40.7056 -87.6461 175° South 273 314 8,400 -1,140 Descending Chicago Center
02:29PM 40.6339 -87.6378 175° South 261 300 7,300 -1,200 Descending Chicago Center
02:30PM 40.5497 -87.6278 175° South 255 293 6,000 -1,080 Descending Chicago Center
02:31PM 40.4822 -87.6186 174° South 248 285 5,100 -900 Descending Chicago Center
02:32PM 40.4214 -87.5914 161° South 242 278 4,200 -720 Descending Chicago Center
02:33PM 40.3744 -87.5644 156° South 205 236 3,600 -600 Descending Chicago Center
02:34PM 40.3278 -87.5411 159° South 187 215 3,000 -660 Descending Chicago Center
02:35PM 40.2803 -87.5314 171° South 178 205 2,300 -720 Descending Chicago Center